KMER/MER METAR and TAF weather

Enter ICAO airport designator
Station Type Date Time Source
KMER METAR 2019/05/21 19:45 UTC NOAA

KMER 211945Z 34005KT 10SM BKN035 16/16 A2991


Station Type Date Time Source
KMER Decoded METAR 2019/05/21 19:45 UTC NOAA

Merced / Castle Air Force Base, CA, United States (KMER) 37-22N 120-34W 60M
May 21, 2019 - 03:45 PM EDT / 2019.05.21 1945 UTC
Wind: from the NNW (340 degrees) at 6 MPH (5 KT):0
Visibility: 10 mile(s):0
Sky conditions: mostly cloudy
Temperature: 60 F (16 C)
Dew Point: 60 F (16 C)
Relative Humidity: 100%
Pressure (altimeter): 29.91 in. Hg (1012 hPa)
ob: KMER 211945Z 34005KT 10SM BKN035 16/16 A2991
cycle: 20

Station Type Date Time Source
KMER TAF 2019/05/21 20:57 UTC NOAA

TAF
AMD KMER 211944Z 2120/2218 32010G18KT P6SM VCSH BKN025 OVC070
FM220300 31009KT P6SM SCT030 BKN050 OVC070

Example: see airport list